createdAt,value
2018-12-15T00:00:29.199Z,0.27
2018-12-15T00:01:29.214Z,0.20
2018-12-15T00:02:29.303Z,0.29
2018-12-15T00:03:29.361Z,0.26
2018-12-15T00:04:29.451Z,0.23
2018-12-15T00:05:29.608Z,0.31
2018-12-15T00:06:29.576Z,0.36
2018-12-15T00:07:29.674Z,0.19
2018-12-15T00:08:29.754Z,0.18
2018-12-15T00:09:29.812Z,0.30
2018-12-15T00:10:29.908Z,0.33
2018-12-15T00:11:29.963Z,0.20
2018-12-15T00:12:30.070Z,0.23
2018-12-15T00:13:30.147Z,0.23
2018-12-15T00:14:30.247Z,0.20
2018-12-15T00:15:30.273Z,0.19
2018-12-15T00:16:30.329Z,0.27
2018-12-15T00:17:30.437Z,0.23
2018-12-15T00:18:30.504Z,0.27
2018-12-15T00:19:30.569Z,0.24
2018-12-15T00:20:30.667Z,0.23
2018-12-15T00:21:30.746Z,0.26
2018-12-15T00:22:30.924Z,0.23
2018-12-15T00:23:30.869Z,0.23
2018-12-15T00:24:30.934Z,0.23
2018-12-15T00:25:31.019Z,0.34
2018-12-15T00:26:31.075Z,0.23
2018-12-15T00:27:31.398Z,0.23
2018-12-15T00:28:31.255Z,0.23
2018-12-15T00:29:31.318Z,0.26
2018-12-15T00:30:31.506Z,0.23
2018-12-15T00:31:31.441Z,0.23
2018-12-15T00:32:31.529Z,0.29
2018-12-15T00:33:31.622Z,0.29
2018-12-15T00:34:31.687Z,0.29
2018-12-15T00:35:31.782Z,0.20
2018-12-15T00:36:31.812Z,0.26
2018-12-15T00:37:31.903Z,0.26
2018-12-15T00:38:32.010Z,0.26
2018-12-15T00:39:32.015Z,0.24
2018-12-15T00:40:32.124Z,0.29
2018-12-15T00:41:32.169Z,0.31
2018-12-15T00:42:32.278Z,0.23
2018-12-15T00:43:32.362Z,0.30
2018-12-15T00:44:32.410Z,0.26
2018-12-15T00:45:32.504Z,0.31
2018-12-15T00:46:32.575Z,0.23
2018-12-15T00:47:32.657Z,0.29
2018-12-15T00:48:32.728Z,0.23
2018-12-15T00:49:32.795Z,0.31
2018-12-15T00:50:32.915Z,0.31
2018-12-15T00:51:32.965Z,0.29
2018-12-15T00:52:33.057Z,0.20
2018-12-15T00:53:33.103Z,0.30
2018-12-15T00:54:33.199Z,0.29
2018-12-15T00:55:33.420Z,0.26
2018-12-15T00:56:33.339Z,0.24
2018-12-15T00:57:33.430Z,0.18
2018-12-15T00:58:33.487Z,0.23
2018-12-15T00:59:33.582Z,0.24
2018-12-15T01:00:33.680Z,0.20
2018-12-15T01:01:33.723Z,0.26
2018-12-15T01:02:33.817Z,0.18
2018-12-15T01:03:33.956Z,0.29
2018-12-15T01:04:33.960Z,0.26
2018-12-15T01:05:34.046Z,0.26
2018-12-15T01:06:34.095Z,0.26
2018-12-15T01:07:35.201Z,0.26
2018-12-15T01:08:34.281Z,0.23
2018-12-15T01:09:34.364Z,0.15
2018-12-15T01:10:34.421Z,0.18
2018-12-15T01:11:34.534Z,0.26
2018-12-15T01:12:34.558Z,0.23
2018-12-15T01:13:34.636Z,0.16
2018-12-15T01:14:34.719Z,0.24
2018-12-15T01:15:34.783Z,0.20
2018-12-15T01:16:34.839Z,0.18
2018-12-15T01:17:34.945Z,0.16
2018-12-15T01:18:35.028Z,0.13
2018-12-15T01:19:35.144Z,0.16
2018-12-15T01:20:35.134Z,0.11
2018-12-15T01:21:35.209Z,0.18
2018-12-15T01:22:35.278Z,0.19
2018-12-15T01:23:35.365Z,0.12
2018-12-15T01:24:35.414Z,0.20
2018-12-15T01:25:35.515Z,0.19
2018-12-15T01:26:35.568Z,0.13
2018-12-15T01:27:35.723Z,0.11
2018-12-15T01:28:35.744Z,0.12
2018-12-15T01:29:35.814Z,0.19
2018-12-15T01:30:35.903Z,0.13
2018-12-15T01:31:35.938Z,0.16
2018-12-15T01:32:36.024Z,0.11
2018-12-15T01:33:36.084Z,0.18
2018-12-15T01:34:36.175Z,0.18
2018-12-15T01:35:36.283Z,0.12
2018-12-15T01:36:36.428Z,0.15
2018-12-15T01:37:36.406Z,0.12
2018-12-15T01:38:36.463Z,0.15
2018-12-15T01:39:36.552Z,0.11
2018-12-15T01:40:36.653Z,0.12
2018-12-15T01:41:36.906Z,0.13
2018-12-15T01:42:36.772Z,0.16
2018-12-15T01:43:36.842Z,0.12
2018-12-15T01:44:37.023Z,0.13
2018-12-15T01:45:37.007Z,0.11
2018-12-15T01:46:37.064Z,0.06
2018-12-15T01:47:37.155Z,0.06
2018-12-15T01:48:37.227Z,0.12
2018-12-15T01:49:37.300Z,0.06
2018-12-15T01:50:37.417Z,0.15
2018-12-15T01:51:37.447Z,0.19
2018-12-15T01:52:37.635Z,0.08
2018-12-15T01:53:37.592Z,0.19
2018-12-15T01:54:37.685Z,0.06
2018-12-15T01:55:37.754Z,0.18
2018-12-15T01:56:37.845Z,0.08
2018-12-15T01:57:37.910Z,0.12
2018-12-15T01:58:37.967Z,0.15
2018-12-15T01:59:38.041Z,0.12
2018-12-15T02:00:38.181Z,0.18
2018-12-15T02:01:38.189Z,0.13
2018-12-15T02:02:38.280Z,0.09
2018-12-15T02:03:38.344Z,0.09
2018-12-15T02:04:38.433Z,0.08
2018-12-15T02:05:38.509Z,0.02
2018-12-15T02:06:38.576Z,0.09
2018-12-15T02:07:38.664Z,0.15
2018-12-15T02:08:38.726Z,0.06
2018-12-15T02:09:38.882Z,0.13
2018-12-15T02:10:38.881Z,0.11
2018-12-15T02:11:38.959Z,0.18
2018-12-15T02:12:39.013Z,0.06
2018-12-15T02:13:39.095Z,0.06
2018-12-15T02:14:39.174Z,0.12
2018-12-15T02:15:39.243Z,0.01
2018-12-15T02:16:39.301Z,0.18
2018-12-15T02:17:39.517Z,0.15
2018-12-15T02:18:39.464Z,0.08
2018-12-15T02:19:39.521Z,0.06
2018-12-15T02:20:39.606Z,0.05
2018-12-15T02:21:39.673Z,0.13
2018-12-15T02:22:39.766Z,0.12
2018-12-15T02:23:39.811Z,0.12
2018-12-15T02:24:39.886Z,0.18
2018-12-15T02:25:40.045Z,0.01
2018-12-15T02:26:40.026Z,0.11
2018-12-15T02:27:40.126Z,0.05
2018-12-15T02:28:40.167Z,0.05
2018-12-15T02:29:40.242Z,0.02
2018-12-15T02:30:40.326Z,0.13
2018-12-15T02:31:40.418Z,0.02
2018-12-15T02:32:40.499Z,0.09
2018-12-15T02:33:40.631Z,-0.03
2018-12-15T02:34:40.609Z,0.00
2018-12-15T02:35:40.723Z,0.05
2018-12-15T02:36:40.796Z,0.09
2018-12-15T02:37:40.852Z,0.00
2018-12-15T02:38:40.903Z,0.08
2018-12-15T02:39:41.014Z,0.09
2018-12-15T02:40:41.066Z,0.06
2018-12-15T02:41:47.015Z,0.13
2018-12-15T02:42:42.231Z,0.01
2018-12-15T02:43:41.275Z,0.11
2018-12-15T02:44:41.364Z,0.13
2018-12-15T02:45:41.453Z,0.15
2018-12-15T02:46:41.516Z,0.05
2018-12-15T02:47:42.085Z,0.12
2018-12-15T02:48:41.656Z,0.15
2018-12-15T02:49:41.759Z,0.11
2018-12-15T02:50:41.952Z,0.09
2018-12-15T02:51:41.884Z,0.12
2018-12-15T02:52:41.980Z,0.13
2018-12-15T02:53:42.027Z,0.13
2018-12-15T02:54:42.101Z,0.15
2018-12-15T02:55:42.422Z,0.11
2018-12-15T02:56:42.267Z,0.13
2018-12-15T02:57:42.344Z,0.16
2018-12-15T02:58:42.524Z,0.15
2018-12-15T02:59:42.466Z,0.11
2018-12-15T03:00:42.563Z,0.11
2018-12-15T03:01:42.630Z,0.15
2018-12-15T03:02:42.716Z,0.11
2018-12-15T03:03:42.759Z,0.09
2018-12-15T03:04:42.839Z,0.15
2018-12-15T03:05:42.928Z,0.06
2018-12-15T03:06:43.045Z,0.15
2018-12-15T03:07:43.090Z,0.06
2018-12-15T03:08:43.120Z,0.12
2018-12-15T03:09:43.193Z,0.12
2018-12-15T03:10:43.329Z,0.15
2018-12-15T03:11:43.353Z,0.18
2018-12-15T03:12:43.448Z,0.09
2018-12-15T03:13:43.510Z,0.05
2018-12-15T03:14:43.654Z,0.09
2018-12-15T03:15:43.693Z,0.12
2018-12-15T03:16:43.727Z,0.09
2018-12-15T03:17:48.837Z,0.12
2018-12-15T03:18:44.901Z,0.12
2018-12-15T03:19:43.960Z,0.18
2018-12-15T03:20:44.063Z,0.18
2018-12-15T03:21:44.106Z,0.05
2018-12-15T03:22:44.279Z,0.12
2018-12-15T03:23:44.275Z,0.12
2018-12-15T03:24:44.325Z,0.12
2018-12-15T03:25:44.416Z,0.13
2018-12-15T03:26:44.474Z,0.12
2018-12-15T03:27:44.603Z,0.09
2018-12-15T03:28:44.638Z,0.15
2018-12-15T03:29:44.708Z,0.18
2018-12-15T03:30:44.854Z,0.18
2018-12-15T03:31:45.000Z,0.20
2018-12-15T03:32:44.965Z,0.18
2018-12-15T03:33:45.019Z,0.24
2018-12-15T03:34:45.093Z,0.23
2018-12-15T03:35:45.204Z,0.18
2018-12-15T03:36:45.237Z,0.19
2018-12-15T03:37:45.331Z,0.19
2018-12-15T03:38:45.397Z,0.27
2018-12-15T03:39:45.576Z,0.23
2018-12-15T03:40:45.576Z,0.23
2018-12-15T03:41:45.607Z,0.23
2018-12-15T03:42:45.699Z,0.20
2018-12-15T03:43:45.762Z,0.20
2018-12-15T03:44:45.841Z,0.19
2018-12-15T03:45:45.922Z,0.13
2018-12-15T03:46:45.977Z,0.16
2018-12-15T03:47:46.102Z,0.12
2018-12-15T03:48:46.130Z,0.12
2018-12-15T03:49:46.193Z,0.11
2018-12-15T03:50:46.289Z,0.16
2018-12-15T03:51:46.337Z,0.20
2018-12-15T03:52:46.420Z,0.16
2018-12-15T03:53:46.489Z,0.19
2018-12-15T03:54:46.551Z,0.16
2018-12-15T03:55:46.734Z,0.19
2018-12-15T03:56:46.693Z,0.19
2018-12-15T03:57:46.817Z,0.24
2018-12-15T03:58:46.872Z,0.20
2018-12-15T03:59:46.927Z,0.20
2018-12-15T04:00:47.038Z,0.23
2018-12-15T04:01:47.089Z,0.20
2018-12-15T04:02:47.165Z,0.26
2018-12-15T04:03:47.245Z,0.26
2018-12-15T04:04:47.408Z,0.23
2018-12-15T04:05:47.409Z,0.19
2018-12-15T04:06:47.459Z,0.23
2018-12-15T04:07:47.540Z,0.19
2018-12-15T04:08:47.591Z,0.19
2018-12-15T04:09:47.896Z,0.19
2018-12-15T04:10:47.783Z,0.23
2018-12-15T04:11:47.832Z,0.20
2018-12-15T04:12:48.044Z,0.26
2018-12-15T04:13:47.986Z,0.23
2018-12-15T04:14:48.048Z,0.27
2018-12-15T04:15:48.167Z,0.26
2018-12-15T04:16:48.213Z,0.26
2018-12-15T04:17:48.434Z,0.23
2018-12-15T04:18:48.399Z,0.20
2018-12-15T04:19:48.461Z,0.23
2018-12-15T04:20:48.625Z,0.18
2018-12-15T04:21:48.595Z,0.24
2018-12-15T04:22:48.689Z,0.24
2018-12-15T04:23:48.765Z,0.20
2018-12-15T04:24:48.819Z,0.24
2018-12-15T04:25:48.939Z,0.20
2018-12-15T04:26:48.970Z,0.26
2018-12-15T04:27:49.078Z,0.29
2018-12-15T04:28:49.152Z,0.23
2018-12-15T04:29:49.189Z,0.26
2018-12-15T04:30:49.302Z,0.20
2018-12-15T04:31:49.333Z,0.27
2018-12-15T04:32:49.424Z,0.20
2018-12-15T04:33:49.477Z,0.20
2018-12-15T04:34:49.565Z,0.24
2018-12-15T04:35:49.695Z,0.18
2018-12-15T04:36:49.773Z,0.20
2018-12-15T04:37:49.847Z,0.13
2018-12-15T04:38:49.860Z,0.12
2018-12-15T04:39:49.933Z,0.08
2018-12-15T04:40:50.068Z,0.18
2018-12-15T04:41:50.106Z,0.18
2018-12-15T04:42:50.177Z,0.16
2018-12-15T04:43:50.234Z,0.18
2018-12-15T04:44:50.343Z,0.18
2018-12-15T04:45:50.551Z,0.23
2018-12-15T04:46:50.498Z,0.19
2018-12-15T04:47:50.564Z,0.11
2018-12-15T04:48:50.622Z,0.26
2018-12-15T04:49:50.718Z,0.23
2018-12-15T04:50:50.811Z,0.16
2018-12-15T04:51:50.877Z,0.16
2018-12-15T04:52:50.949Z,0.15
2018-12-15T04:53:51.138Z,0.12
2018-12-15T04:54:51.123Z,0.23
2018-12-15T04:55:51.194Z,0.12
2018-12-15T04:56:51.275Z,0.09
2018-12-15T04:57:51.348Z,0.18
2018-12-15T04:58:51.421Z,0.08
2018-12-15T04:59:51.500Z,0.08
2018-12-15T05:00:51.585Z,0.11
2018-12-15T05:01:51.730Z,0.09
2018-12-15T05:02:51.735Z,0.12
2018-12-15T05:03:51.779Z,0.20
2018-12-15T05:04:51.881Z,0.16
2018-12-15T05:05:51.948Z,0.13
2018-12-15T05:06:52.044Z,0.08
2018-12-15T05:07:52.099Z,0.13
2018-12-15T05:08:52.151Z,0.11
2018-12-15T05:09:52.350Z,0.13
2018-12-15T05:10:52.310Z,0.11
2018-12-15T05:11:52.380Z,0.15
2018-12-15T05:12:52.449Z,0.12
2018-12-15T05:13:52.513Z,0.16
2018-12-15T05:14:52.608Z,0.09
2018-12-15T05:15:52.678Z,0.13
2018-12-15T05:16:52.763Z,0.16
2018-12-15T05:17:52.907Z,0.05
2018-12-15T05:18:53.160Z,-0.07
2018-12-15T05:19:52.953Z,-0.05
2018-12-15T05:20:53.027Z,0.08
2018-12-15T05:21:53.089Z,0.08
2018-12-15T05:22:53.401Z,0.02
2018-12-15T05:23:53.244Z,0.06
2018-12-15T05:24:53.318Z,0.01
2018-12-15T05:25:53.415Z,-0.03
2018-12-15T05:26:53.566Z,0.05
2018-12-15T05:27:53.549Z,0.09
2018-12-15T05:28:53.623Z,0.11
2018-12-15T05:29:53.671Z,0.09
2018-12-15T05:30:53.762Z,0.02
2018-12-15T05:31:53.847Z,0.05
2018-12-15T05:32:53.934Z,0.06
2018-12-15T05:33:53.969Z,-0.02
2018-12-15T05:34:54.126Z,0.02
2018-12-15T05:35:54.124Z,-0.03
2018-12-15T05:36:54.209Z,0.09
2018-12-15T05:37:54.285Z,-0.03
2018-12-15T05:38:54.328Z,0.01
2018-12-15T05:39:54.414Z,-0.05
2018-12-15T05:40:54.503Z,0.08
2018-12-15T05:41:54.601Z,-0.07
2018-12-15T05:42:54.718Z,-0.05
2018-12-15T05:43:54.704Z,0.02
2018-12-15T05:44:54.784Z,-0.12
2018-12-15T05:45:54.892Z,-0.15
2018-12-15T05:46:54.954Z,0.00
2018-12-15T05:47:55.020Z,0.00
2018-12-15T05:48:55.076Z,-0.03
2018-12-15T05:49:55.158Z,0.01
2018-12-15T05:50:55.310Z,-0.10
2018-12-15T05:51:55.326Z,-0.15
2018-12-15T05:52:55.404Z,-0.15
2018-12-15T05:53:55.480Z,-0.02
2018-12-15T05:54:55.532Z,-0.03
2018-12-15T05:55:55.625Z,-0.07
2018-12-15T05:56:55.695Z,-0.10
2018-12-15T05:57:55.786Z,-0.07
2018-12-15T05:58:55.839Z,-0.13
2018-12-15T05:59:56.003Z,-0.07
2018-12-15T06:00:55.984Z,-0.07
2018-12-15T06:01:56.051Z,-0.13
2018-12-15T06:02:56.150Z,-0.02
2018-12-15T06:03:56.185Z,-0.02
2018-12-15T06:04:56.260Z,-0.12
2018-12-15T06:05:56.352Z,0.02
2018-12-15T06:06:56.456Z,-0.02
2018-12-15T06:07:56.621Z,-0.05
2018-12-15T06:08:56.556Z,0.06
2018-12-15T06:09:56.643Z,-0.09
2018-12-15T06:10:56.726Z,-0.09
2018-12-15T06:11:56.834Z,-0.05
2018-12-15T06:12:56.872Z,-0.10
2018-12-15T06:13:56.926Z,-0.05
2018-12-15T06:14:56.997Z,-0.17
2018-12-15T06:15:57.175Z,-0.12
2018-12-15T06:16:57.176Z,-0.09
2018-12-15T06:17:57.232Z,-0.03
2018-12-15T06:18:57.297Z,-0.06
2018-12-15T06:19:57.364Z,-0.06
2018-12-15T06:20:57.475Z,0.08
2018-12-15T06:21:57.561Z,0.09
2018-12-15T06:22:57.621Z,-0.07
2018-12-15T06:23:57.736Z,-0.05
2018-12-15T06:24:57.749Z,0.05
2018-12-15T06:25:57.825Z,0.06
2018-12-15T06:26:57.919Z,0.05
2018-12-15T06:27:57.972Z,0.06
2018-12-15T06:28:58.050Z,0.00
2018-12-15T06:29:58.107Z,0.01
2018-12-15T06:30:58.201Z,0.06
2018-12-15T06:31:58.304Z,-0.02
2018-12-15T06:32:58.375Z,-0.06
2018-12-15T06:33:58.420Z,-0.03
2018-12-15T06:34:58.473Z,-0.06
2018-12-15T06:35:58.564Z,-0.10
2018-12-15T06:36:58.632Z,0.00
2018-12-15T06:38:04.369Z,0.02
2018-12-15T06:38:58.769Z,0.01
2018-12-15T06:39:59.347Z,-0.09
2018-12-15T06:40:59.472Z,-0.02
2018-12-15T06:41:59.018Z,-0.06
2018-12-15T06:42:59.103Z,0.00
2018-12-15T06:43:59.202Z,-0.13
2018-12-15T06:44:59.228Z,0.01
2018-12-15T06:45:59.341Z,-0.07
2018-12-15T06:46:59.383Z,-0.10
2018-12-15T06:47:59.489Z,-0.12
2018-12-15T06:48:59.646Z,-0.13
2018-12-15T06:49:59.611Z,-0.18
2018-12-15T06:51:00.102Z,-0.07
2018-12-15T06:51:59.788Z,-0.09
2018-12-15T06:52:59.918Z,-0.09
2018-12-15T06:53:59.925Z,-0.17
2018-12-15T06:55:00.015Z,-0.06
2018-12-15T06:56:00.066Z,-0.12
2018-12-15T06:57:00.183Z,-0.12
2018-12-15T06:58:00.861Z,-0.12
2018-12-15T06:59:00.277Z,-0.10
2018-12-15T07:00:00.362Z,-0.13
2018-12-15T07:01:00.433Z,-0.12
2018-12-15T07:02:00.488Z,-0.13
2018-12-15T07:03:00.630Z,-0.12
2018-12-15T07:04:00.643Z,-0.15
2018-12-15T07:05:00.761Z,-0.12
2018-12-15T07:06:01.349Z,-0.12
2018-12-15T07:07:00.850Z,-0.07
2018-12-15T07:08:00.969Z,-0.07
2018-12-15T07:09:01.013Z,-0.09
2018-12-15T07:10:01.097Z,-0.07
2018-12-15T07:11:01.160Z,-0.02
2018-12-15T07:12:01.272Z,0.00
2018-12-15T07:13:01.402Z,0.06
2018-12-15T07:14:01.444Z,0.06
2018-12-15T07:15:01.472Z,-0.07
2018-12-15T07:16:01.533Z,0.00
2018-12-15T07:17:01.627Z,-0.03
2018-12-15T07:18:01.734Z,0.02
2018-12-15T07:19:02.359Z,0.09
2018-12-15T07:20:01.845Z,0.02
2018-12-15T07:21:01.919Z,0.02
2018-12-15T07:22:02.086Z,0.02
2018-12-15T07:23:02.858Z,0.11
2018-12-15T07:24:02.196Z,-0.06
2018-12-15T07:25:02.212Z,0.12
2018-12-15T07:26:02.314Z,-0.06
2018-12-15T07:27:02.342Z,-0.09
2018-12-15T07:28:02.464Z,0.01
2018-12-15T07:29:02.497Z,0.06
2018-12-15T07:30:02.671Z,-0.02
2018-12-15T07:31:02.632Z,0.06
2018-12-15T07:32:02.709Z,-0.05
2018-12-15T07:33:02.829Z,-0.07
2018-12-15T07:34:02.868Z,0.08
2018-12-15T07:35:02.947Z,0.08
2018-12-15T07:36:03.004Z,0.05
2018-12-15T07:37:03.075Z,0.01
2018-12-15T07:38:03.214Z,0.06
2018-12-15T07:39:03.222Z,0.06
2018-12-15T07:40:03.334Z,0.02
2018-12-15T07:41:03.369Z,0.01
2018-12-15T07:42:03.451Z,-0.02
2018-12-15T07:43:03.580Z,0.06
2018-12-15T07:44:03.619Z,-0.05
2018-12-15T07:45:03.697Z,0.01
2018-12-15T07:46:03.809Z,0.02
2018-12-15T07:47:03.826Z,0.06
2018-12-15T07:48:03.940Z,0.02
2018-12-15T07:49:03.973Z,0.11
2018-12-15T07:50:04.073Z,0.02
2018-12-15T07:51:04.140Z,0.05
2018-12-15T07:52:04.196Z,0.01
2018-12-15T07:53:04.533Z,0.05
2018-12-15T07:54:04.377Z,0.11
2018-12-15T07:55:04.521Z,0.01
2018-12-15T07:56:04.508Z,0.16
2018-12-15T07:57:04.577Z,0.16
2018-12-15T07:58:04.668Z,0.06
2018-12-15T07:59:04.725Z,0.09
2018-12-15T08:00:04.863Z,0.05
2018-12-15T08:01:04.886Z,0.00
2018-12-15T08:02:04.963Z,0.09
2018-12-15T08:03:05.186Z,0.06
2018-12-15T08:04:05.104Z,0.16
2018-12-15T08:05:05.224Z,0.18
2018-12-15T08:06:05.263Z,0.09
2018-12-15T08:07:05.345Z,0.15
2018-12-15T08:08:05.436Z,0.15
2018-12-15T08:09:05.512Z,0.12
2018-12-15T08:10:05.607Z,0.08
2018-12-15T08:11:05.708Z,0.06
2018-12-15T08:12:05.711Z,0.15
2018-12-15T08:13:05.812Z,0.06
2018-12-15T08:14:05.868Z,0.06
2018-12-15T08:15:05.963Z,0.06
2018-12-15T08:16:06.020Z,0.08
2018-12-15T08:17:06.105Z,0.12
2018-12-15T08:18:06.181Z,0.16
2018-12-15T08:19:06.270Z,0.15
2018-12-15T08:20:06.344Z,0.20
2018-12-15T08:21:06.374Z,0.23
2018-12-15T08:22:06.462Z,0.24
2018-12-15T08:23:06.558Z,0.24
2018-12-15T08:24:06.612Z,0.30
2018-12-15T08:25:06.720Z,0.37
2018-12-15T08:26:06.762Z,0.34
2018-12-15T08:27:06.898Z,0.40
2018-12-15T08:28:06.997Z,0.30
2018-12-15T08:29:06.990Z,0.45
2018-12-15T08:30:07.123Z,0.48
2018-12-15T08:31:07.137Z,0.58
2018-12-15T08:32:07.211Z,0.49
2018-12-15T08:33:07.320Z,0.52
2018-12-15T08:34:07.365Z,0.52
2018-12-15T08:35:07.471Z,0.49
2018-12-15T08:36:07.635Z,0.48
2018-12-15T08:37:07.584Z,0.49
2018-12-15T08:38:07.722Z,0.59
2018-12-15T08:39:07.746Z,0.55
2018-12-15T08:40:07.818Z,0.61
2018-12-15T08:41:07.880Z,0.63
2018-12-15T08:42:07.943Z,0.63
2018-12-15T08:43:08.079Z,0.64
2018-12-15T08:44:08.181Z,0.64
2018-12-15T08:45:08.189Z,0.68
2018-12-15T08:46:08.242Z,0.70
2018-12-15T08:47:08.329Z,0.78
2018-12-15T08:48:08.461Z,0.74
2018-12-15T08:49:08.472Z,0.73
2018-12-15T08:50:08.566Z,0.81
2018-12-15T08:51:09.355Z,0.73
2018-12-15T08:52:08.757Z,0.73
2018-12-15T08:53:08.795Z,0.68
2018-12-15T08:54:08.852Z,0.74
2018-12-15T08:55:08.936Z,0.77
2018-12-15T08:56:09.008Z,0.81
2018-12-15T08:57:09.068Z,0.78
2018-12-15T08:58:09.159Z,0.84
2018-12-15T08:59:09.221Z,0.91
2018-12-15T09:00:09.371Z,0.89
2018-12-15T09:01:09.382Z,0.91
2018-12-15T09:02:09.452Z,0.95
2018-12-15T09:03:09.550Z,1.03
2018-12-15T09:04:09.588Z,0.89
2018-12-15T09:05:09.701Z,0.88
2018-12-15T09:06:09.761Z,1.03
2018-12-15T09:07:10.065Z,0.92
2018-12-15T09:08:09.981Z,0.92
2018-12-15T09:09:10.029Z,1.06
2018-12-15T09:10:10.085Z,0.95
2018-12-15T09:11:10.142Z,1.04
2018-12-15T09:12:10.214Z,1.04
2018-12-15T09:13:10.340Z,0.99
2018-12-15T09:14:10.362Z,1.04
2018-12-15T09:15:10.455Z,1.14
2018-12-15T09:16:10.518Z,1.07
2018-12-15T09:17:10.696Z,1.03
2018-12-15T09:18:10.716Z,1.14
2018-12-15T09:19:11.422Z,1.04
2018-12-15T09:20:10.838Z,1.02
2018-12-15T09:21:10.894Z,1.03
2018-12-15T09:22:11.518Z,1.06
2018-12-15T09:23:11.089Z,1.06
2018-12-15T09:24:11.132Z,1.06
2018-12-15T09:25:11.313Z,1.10
2018-12-15T09:26:11.259Z,1.07
2018-12-15T09:27:11.354Z,1.07
2018-12-15T09:28:11.462Z,1.13
2018-12-15T09:29:11.485Z,1.10
2018-12-15T09:30:11.581Z,1.07
2018-12-15T09:31:11.644Z,1.06
2018-12-15T09:32:11.702Z,1.06
2018-12-15T09:33:11.871Z,0.99
2018-12-15T09:34:11.826Z,1.10
2018-12-15T09:35:11.943Z,1.18
2018-12-15T09:36:11.994Z,1.20
2018-12-15T09:37:12.053Z,1.12
2018-12-15T09:38:12.184Z,1.14
2018-12-15T09:39:12.210Z,1.04
2018-12-15T09:40:12.286Z,1.18
2018-12-15T09:41:12.396Z,1.14
2018-12-15T09:42:12.413Z,1.09
2018-12-15T09:43:12.539Z,1.09
2018-12-15T09:44:12.560Z,1.14
2018-12-15T09:45:12.659Z,1.13
2018-12-15T09:46:12.715Z,1.10
2018-12-15T09:47:12.789Z,1.00
2018-12-15T09:48:12.896Z,1.10
2018-12-15T09:49:17.684Z,1.00
2018-12-15T09:50:14.878Z,1.06
2018-12-15T09:51:13.082Z,1.00
2018-12-15T09:52:13.154Z,1.03
2018-12-15T09:53:13.858Z,1.03
2018-12-15T09:54:13.858Z,1.00
2018-12-15T09:55:13.391Z,1.00
2018-12-15T09:56:13.467Z,1.03
2018-12-15T09:57:13.520Z,1.07
2018-12-15T09:58:13.764Z,1.06
2018-12-15T09:59:13.667Z,1.07
2018-12-15T10:00:13.756Z,0.99
2018-12-15T10:01:14.370Z,1.20
2018-12-15T10:02:13.891Z,1.07
2018-12-15T10:03:14.377Z,1.14
2018-12-15T10:04:14.051Z,1.20
2018-12-15T10:05:14.142Z,1.24
2018-12-15T10:06:14.255Z,1.24
2018-12-15T10:07:14.242Z,1.18
2018-12-15T10:08:14.371Z,1.20
2018-12-15T10:09:14.393Z,1.14
2018-12-15T10:10:14.502Z,1.13
2018-12-15T10:11:14.560Z,1.13
2018-12-15T10:12:14.629Z,1.03
2018-12-15T10:13:14.926Z,1.06
2018-12-15T10:14:14.834Z,1.04
2018-12-15T10:15:14.866Z,1.16
2018-12-15T10:16:14.934Z,1.06
2018-12-15T10:17:15.002Z,1.20
2018-12-15T10:18:15.116Z,1.14
2018-12-15T10:19:15.160Z,1.14
2018-12-15T10:20:15.240Z,1.27
2018-12-15T10:21:15.306Z,1.22
2018-12-15T10:22:15.681Z,1.14
2018-12-15T10:23:15.525Z,1.22
2018-12-15T10:24:15.535Z,1.22
2018-12-15T10:25:15.618Z,1.27
2018-12-15T10:26:15.705Z,1.27
2018-12-15T10:27:15.758Z,1.25
2018-12-15T10:28:15.849Z,1.16
2018-12-15T10:29:15.928Z,1.27
2018-12-15T10:30:16.009Z,1.24
2018-12-15T10:31:16.168Z,1.14
2018-12-15T10:32:16.144Z,1.22
2018-12-15T10:33:16.228Z,1.27
2018-12-15T10:34:16.299Z,1.25
2018-12-15T10:35:16.368Z,1.32
2018-12-15T10:36:16.433Z,1.38
2018-12-15T10:37:16.506Z,1.38
2018-12-15T10:38:16.602Z,1.39
2018-12-15T10:39:16.796Z,1.31
2018-12-15T10:40:16.741Z,1.32
2018-12-15T10:41:16.816Z,1.38
2018-12-15T10:42:16.890Z,1.34
2018-12-15T10:43:16.980Z,1.25
2018-12-15T10:44:17.073Z,1.20
2018-12-15T10:45:17.120Z,1.24
2018-12-15T10:46:17.191Z,1.27
2018-12-15T10:47:17.298Z,1.25
2018-12-15T10:48:17.355Z,1.12
2018-12-15T10:49:17.439Z,1.20
2018-12-15T10:50:17.486Z,1.21
2018-12-15T10:51:17.545Z,1.16
2018-12-15T10:52:17.618Z,1.24
2018-12-15T10:53:17.725Z,1.30
2018-12-15T10:54:17.848Z,1.32
2018-12-15T10:55:17.918Z,1.39
2018-12-15T10:56:17.902Z,1.32
2018-12-15T10:57:17.998Z,1.34
2018-12-15T10:58:18.084Z,1.43
2018-12-15T10:59:18.157Z,1.48
2018-12-15T11:00:18.237Z,1.43
2018-12-15T11:01:18.307Z,1.48
2018-12-15T11:02:18.363Z,1.48
2018-12-15T11:03:18.492Z,1.52
2018-12-15T11:04:18.562Z,1.46
2018-12-15T11:05:18.612Z,1.46
2018-12-15T11:06:18.667Z,1.46
2018-12-15T11:07:18.725Z,1.42
2018-12-15T11:08:18.833Z,1.43
2018-12-15T11:09:18.898Z,1.38
2018-12-15T11:10:18.980Z,1.31
2018-12-15T11:11:19.029Z,1.31
2018-12-15T11:12:19.273Z,1.38
2018-12-15T11:13:19.185Z,1.43
2018-12-15T11:14:19.252Z,1.42
2018-12-15T11:15:19.337Z,1.34
2018-12-15T11:16:19.375Z,1.36
2018-12-15T11:17:19.448Z,1.36
2018-12-15T11:18:19.546Z,1.34
2018-12-15T11:19:19.629Z,1.42
2018-12-15T11:20:19.790Z,1.38
2018-12-15T11:21:19.734Z,1.43
2018-12-15T11:22:19.814Z,1.46
2018-12-15T11:23:19.895Z,1.38
2018-12-15T11:24:19.975Z,1.32
2018-12-15T11:25:20.094Z,1.36
2018-12-15T11:26:20.124Z,1.31
2018-12-15T11:27:20.203Z,1.25
2018-12-15T11:28:20.352Z,1.22
2018-12-15T11:29:20.370Z,1.13
2018-12-15T11:30:20.443Z,1.24
2018-12-15T11:31:20.496Z,1.21
2018-12-15T11:32:20.602Z,1.21
2018-12-15T11:33:20.671Z,1.18
2018-12-15T11:34:20.740Z,1.20
2018-12-15T11:35:21.059Z,1.21
2018-12-15T11:36:20.905Z,1.16
2018-12-15T11:37:20.949Z,1.27
2018-12-15T11:38:21.041Z,1.21
2018-12-15T11:39:21.131Z,1.21
2018-12-15T11:40:21.209Z,1.25
2018-12-15T11:41:21.245Z,1.25
2018-12-15T11:42:21.317Z,1.27
2018-12-15T11:43:21.412Z,1.28
2018-12-15T11:44:21.509Z,1.25
2018-12-15T11:45:21.627Z,1.28
2018-12-15T11:46:21.612Z,1.22
2018-12-15T11:47:22.367Z,1.31
2018-12-15T11:48:21.783Z,1.30
2018-12-15T11:49:21.875Z,1.38
2018-12-15T11:50:21.924Z,1.40
2018-12-15T11:51:21.981Z,1.38
2018-12-15T11:52:22.050Z,1.31
2018-12-15T11:53:22.276Z,1.46
2018-12-15T11:54:22.236Z,1.31
2018-12-15T11:55:22.301Z,1.45
2018-12-15T11:56:22.376Z,1.45
2018-12-15T11:57:22.434Z,1.36
2018-12-15T11:58:22.549Z,1.42
2018-12-15T11:59:22.604Z,1.46
2018-12-15T12:00:22.672Z,1.48
2018-12-15T12:01:22.811Z,1.46
2018-12-15T12:02:22.802Z,1.48
2018-12-15T12:03:23.366Z,1.50
2018-12-15T12:04:22.965Z,1.52
2018-12-15T12:05:23.047Z,1.50
2018-12-15T12:06:23.118Z,1.60
2018-12-15T12:07:23.171Z,1.56
2018-12-15T12:08:23.271Z,1.50
2018-12-15T12:09:23.383Z,1.52
2018-12-15T12:10:23.401Z,1.68
2018-12-15T12:11:23.500Z,1.53
2018-12-15T12:12:23.554Z,1.64
2018-12-15T12:13:23.632Z,1.56
2018-12-15T12:14:23.757Z,1.61
2018-12-15T12:15:23.823Z,1.66
2018-12-15T12:16:23.849Z,1.52
2018-12-15T12:17:23.956Z,1.60
2018-12-15T12:18:24.111Z,1.64
2018-12-15T12:19:24.086Z,1.67
2018-12-15T12:20:24.185Z,1.61
2018-12-15T12:21:24.248Z,1.63
2018-12-15T12:22:24.314Z,1.58
2018-12-15T12:23:24.406Z,1.58
2018-12-15T12:24:24.465Z,1.60
2018-12-15T12:25:24.564Z,1.70
2018-12-15T12:26:24.763Z,1.70
2018-12-15T12:27:24.687Z,1.64
2018-12-15T12:28:24.776Z,1.64
2018-12-15T12:29:24.837Z,1.71
2018-12-15T12:30:24.935Z,1.66
2018-12-15T12:31:24.987Z,1.64
2018-12-15T12:32:25.060Z,1.58
2018-12-15T12:33:25.152Z,1.68
2018-12-15T12:34:25.284Z,1.71
2018-12-15T12:35:25.290Z,1.63
2018-12-15T12:36:25.355Z,1.76
2018-12-15T12:37:25.421Z,1.75
2018-12-15T12:38:29.896Z,1.78
2018-12-15T12:39:25.568Z,1.79
2018-12-15T12:40:25.662Z,1.76
2018-12-15T12:41:25.769Z,1.74
2018-12-15T12:42:25.876Z,1.71
2018-12-15T12:43:25.865Z,1.75
2018-12-15T12:44:25.936Z,1.67
2018-12-15T12:45:26.038Z,1.66
2018-12-15T12:46:26.085Z,1.71
2018-12-15T12:47:26.168Z,1.74
2018-12-15T12:48:26.476Z,1.58
2018-12-15T12:49:26.321Z,1.57
2018-12-15T12:50:26.441Z,1.63
2018-12-15T12:51:26.431Z,1.76
2018-12-15T12:52:26.515Z,1.60
2018-12-15T12:53:26.599Z,1.61
2018-12-15T12:54:26.657Z,1.64
2018-12-15T12:55:26.753Z,1.52
2018-12-15T12:56:26.815Z,1.56
2018-12-15T12:57:26.931Z,1.64
2018-12-15T12:58:27.014Z,1.60
2018-12-15T12:59:27.079Z,1.67
2018-12-15T13:00:27.122Z,1.52
2018-12-15T13:01:27.186Z,1.49
2018-12-15T13:02:27.287Z,1.61
2018-12-15T13:03:27.352Z,1.61
2018-12-15T13:04:27.412Z,1.74
2018-12-15T13:05:27.504Z,1.63
2018-12-15T13:06:27.588Z,1.57
2018-12-15T13:07:27.776Z,1.57
2018-12-15T13:08:27.740Z,1.58
2018-12-15T13:09:27.794Z,1.57
2018-12-15T13:10:27.879Z,1.63
2018-12-15T13:11:28.030Z,1.71
2018-12-15T13:12:28.014Z,1.74
2018-12-15T13:13:28.096Z,1.70
2018-12-15T13:14:28.156Z,1.68
2018-12-15T13:15:28.406Z,1.75
2018-12-15T13:16:28.321Z,1.79